createdAt,value
2022-11-17T00:00:15.628Z,7.4
2022-11-17T00:01:16.243Z,7.4
2022-11-17T00:02:16.897Z,7.5
2022-11-17T00:03:17.453Z,7.5
2022-11-17T00:04:18.061Z,7.4
2022-11-17T00:05:18.656Z,7.4
2022-11-17T00:06:19.251Z,7.5
2022-11-17T00:07:19.911Z,7.4
2022-11-17T00:08:20.496Z,7.5
2022-11-17T00:09:21.085Z,7.3
2022-11-17T00:10:21.699Z,7.5
2022-11-17T00:11:22.291Z,7.4
2022-11-17T00:12:23.244Z,7.5
2022-11-17T00:13:24.091Z,7.5
2022-11-17T00:14:24.689Z,7.5
2022-11-17T00:15:25.280Z,7.4
2022-11-17T00:16:25.880Z,7.5
2022-11-17T00:17:26.471Z,7.3
2022-11-17T00:18:27.068Z,7.5
2022-11-17T00:19:27.663Z,7.4
2022-11-17T00:20:28.256Z,7.4
2022-11-17T00:21:28.848Z,7.4
2022-11-17T00:22:29.444Z,7.4
2022-11-17T00:23:30.038Z,7.4
2022-11-17T00:24:30.634Z,7.5
2022-11-17T00:25:31.227Z,7.5
2022-11-17T00:26:31.824Z,7.5
2022-11-17T00:27:32.417Z,7.4
2022-11-17T00:28:34.611Z,7.5
2022-11-17T00:29:38.638Z,7.4
2022-11-17T00:30:35.210Z,7.4
2022-11-17T00:31:35.805Z,7.4
2022-11-17T00:32:36.400Z,7.4
2022-11-17T00:33:37.257Z,7.5
2022-11-17T00:34:37.989Z,7.4
2022-11-17T00:35:38.581Z,7.4
2022-11-17T00:36:39.187Z,7.4
2022-11-17T00:37:39.771Z,7.5
2022-11-17T00:38:40.386Z,7.4
2022-11-17T00:39:40.980Z,7.5
2022-11-17T00:40:41.575Z,7.4
2022-11-17T00:41:42.165Z,7.4
2022-11-17T00:42:42.830Z,7.4
2022-11-17T00:43:43.370Z,7.5
2022-11-17T00:44:43.964Z,7.4
2022-11-17T00:45:44.575Z,7.5
2022-11-17T00:46:45.170Z,7.3
2022-11-17T00:47:45.763Z,7.4
2022-11-17T00:48:46.360Z,7.5
2022-11-17T00:49:46.954Z,7.5
2022-11-17T00:50:47.549Z,7.5
2022-11-17T00:51:48.165Z,7.4
2022-11-17T00:52:48.756Z,7.5
2022-11-17T00:53:49.375Z,7.4
2022-11-17T00:54:49.982Z,7.5
2022-11-17T00:55:50.683Z,7.4
2022-11-17T00:56:51.270Z,7.4
2022-11-17T00:57:51.927Z,7.5
2022-11-17T00:58:52.479Z,7.4
2022-11-17T00:59:53.092Z,7.5
2022-11-17T01:00:53.691Z,7.5
2022-11-17T01:01:54.333Z,7.5
2022-11-17T01:02:54.891Z,7.4
2022-11-17T01:03:55.485Z,7.4
2022-11-17T01:04:56.081Z,7.4
2022-11-17T01:05:56.683Z,7.3
2022-11-17T01:06:57.314Z,7.4
2022-11-17T01:07:57.884Z,7.2
2022-11-17T01:08:58.478Z,7.3
2022-11-17T01:09:59.070Z,7.2
2022-11-17T01:10:59.665Z,7.2
2022-11-17T01:12:00.261Z,7.2
2022-11-17T01:13:00.856Z,7.2
2022-11-17T01:14:01.458Z,7.1
2022-11-17T01:15:02.066Z,7.1
2022-11-17T01:16:02.682Z,7.1
2022-11-17T01:17:03.277Z,7.1
2022-11-17T01:18:03.870Z,7.1
2022-11-17T01:19:04.464Z,7.0
2022-11-17T01:20:05.058Z,7.1
2022-11-17T01:21:05.655Z,7.1
2022-11-17T01:22:06.249Z,7.0
2022-11-17T01:23:06.845Z,7.0
2022-11-17T01:24:07.440Z,7.0
2022-11-17T01:25:08.038Z,7.1
2022-11-17T01:26:08.632Z,7.1
2022-11-17T01:27:09.230Z,7.1
2022-11-17T01:28:09.891Z,7.0
2022-11-17T01:29:10.433Z,7.0
2022-11-17T01:30:11.025Z,7.1
2022-11-17T01:31:11.622Z,6.9
2022-11-17T01:32:12.216Z,7.0
2022-11-17T01:33:12.815Z,7.0
2022-11-17T01:34:13.429Z,6.9
2022-11-17T01:35:14.026Z,6.9
2022-11-17T01:36:14.621Z,6.9
2022-11-17T01:37:15.217Z,6.8
2022-11-17T01:38:15.808Z,6.9
2022-11-17T01:39:16.402Z,6.8
2022-11-17T01:40:16.998Z,6.9
2022-11-17T01:41:17.592Z,6.8
2022-11-17T01:42:18.187Z,6.8
2022-11-17T01:43:18.848Z,6.7
2022-11-17T01:44:19.390Z,6.8
2022-11-17T01:45:19.983Z,6.8
2022-11-17T01:46:20.577Z,6.8
2022-11-17T01:47:21.172Z,6.9
2022-11-17T01:48:21.767Z,6.7
2022-11-17T01:49:22.382Z,6.8
2022-11-17T01:50:22.974Z,6.8
2022-11-17T01:51:23.588Z,6.8
2022-11-17T01:52:24.182Z,6.8
2022-11-17T01:53:24.776Z,6.8
2022-11-17T01:54:25.370Z,6.8
2022-11-17T01:55:25.983Z,6.7
2022-11-17T01:56:26.576Z,6.7
2022-11-17T01:57:27.170Z,6.8
2022-11-17T01:58:27.827Z,6.9
2022-11-17T01:59:28.377Z,6.8
2022-11-17T02:00:28.970Z,6.8
2022-11-17T02:01:29.615Z,6.8
2022-11-17T02:02:30.175Z,6.8
2022-11-17T02:03:30.769Z,6.9
2022-11-17T02:04:31.361Z,6.9
2022-11-17T02:05:31.959Z,6.9
2022-11-17T02:06:32.551Z,6.9
2022-11-17T02:07:33.251Z,6.9
2022-11-17T02:08:33.814Z,6.8
2022-11-17T02:09:34.430Z,6.9
2022-11-17T02:10:35.025Z,6.9
2022-11-17T02:11:35.618Z,6.8
2022-11-17T02:12:36.216Z,6.9
2022-11-17T02:13:37.446Z,6.9
2022-11-17T02:14:37.431Z,6.9
2022-11-17T02:15:38.047Z,6.8
2022-11-17T02:16:38.659Z,6.9
2022-11-17T02:17:39.254Z,6.8
2022-11-17T02:18:39.847Z,6.9
2022-11-17T02:19:40.461Z,6.9
2022-11-17T02:20:41.076Z,6.9
2022-11-17T02:21:41.672Z,6.9
2022-11-17T02:22:42.264Z,6.9
2022-11-17T02:23:42.860Z,6.9
2022-11-17T02:24:43.474Z,6.9
2022-11-17T02:25:44.066Z,7.0
2022-11-17T02:26:44.658Z,6.9
2022-11-17T02:27:45.256Z,6.8
2022-11-17T02:28:45.934Z,6.9
2022-11-17T02:29:46.485Z,6.9
2022-11-17T02:30:47.080Z,6.9
2022-11-17T02:31:47.674Z,6.9
2022-11-17T02:32:48.267Z,7.0
2022-11-17T02:33:48.861Z,6.9
2022-11-17T02:34:49.454Z,7.0
2022-11-17T02:35:50.048Z,7.0
2022-11-17T02:36:50.661Z,6.9
2022-11-17T02:37:51.253Z,6.9
2022-11-17T02:38:51.848Z,6.9
2022-11-17T02:39:52.460Z,7.0
2022-11-17T02:40:53.053Z,7.1
2022-11-17T02:41:53.649Z,7.0
2022-11-17T02:42:54.246Z,7.0
2022-11-17T02:43:54.838Z,7.0
2022-11-17T02:44:55.433Z,6.9
2022-11-17T02:45:56.046Z,7.0
2022-11-17T02:46:56.641Z,6.8
2022-11-17T02:47:57.234Z,6.9
2022-11-17T02:48:57.829Z,6.9
2022-11-17T02:49:58.424Z,6.9
2022-11-17T02:50:59.020Z,6.9
2022-11-17T02:51:59.615Z,6.8
2022-11-17T02:53:00.235Z,6.8
2022-11-17T02:54:00.846Z,6.9
2022-11-17T02:55:01.441Z,6.8
2022-11-17T02:56:02.053Z,6.8
2022-11-17T02:57:02.629Z,6.8
2022-11-17T02:58:03.232Z,6.8
2022-11-17T02:59:03.881Z,6.7
2022-11-17T03:00:04.423Z,6.7
2022-11-17T03:01:05.018Z,6.8
2022-11-17T03:02:05.659Z,6.7
2022-11-17T03:03:06.255Z,6.7
2022-11-17T03:04:06.847Z,6.8
2022-11-17T03:05:07.443Z,6.6
2022-11-17T03:06:08.036Z,6.7
2022-11-17T03:07:08.686Z,6.6
2022-11-17T03:08:09.237Z,6.6
2022-11-17T03:09:09.834Z,6.7
2022-11-17T03:10:10.424Z,6.7
2022-11-17T03:11:11.021Z,6.7
2022-11-17T03:12:11.613Z,6.6
2022-11-17T03:13:12.204Z,6.7
2022-11-17T03:14:12.861Z,6.7
2022-11-17T03:15:13.408Z,6.6
2022-11-17T03:16:14.020Z,6.7
2022-11-17T03:17:14.614Z,6.6
2022-11-17T03:18:15.205Z,6.7
2022-11-17T03:19:15.798Z,6.6
2022-11-17T03:20:16.412Z,6.6
2022-11-17T03:21:17.027Z,6.6
2022-11-17T03:22:17.637Z,6.6
2022-11-17T03:23:18.231Z,6.6
2022-11-17T03:24:18.824Z,6.7
2022-11-17T03:25:19.416Z,6.6
2022-11-17T03:26:20.008Z,6.6
2022-11-17T03:27:20.600Z,6.6
2022-11-17T03:28:21.192Z,6.6
2022-11-17T03:29:21.786Z,6.6
2022-11-17T03:30:22.389Z,6.5
2022-11-17T03:31:22.983Z,6.6
2022-11-17T03:32:23.578Z,6.6
2022-11-17T03:33:24.167Z,6.6
2022-11-17T03:34:24.765Z,6.6
2022-11-17T03:35:25.355Z,6.6
2022-11-17T03:36:25.944Z,6.6
2022-11-17T03:37:26.557Z,6.6
2022-11-17T03:38:27.150Z,6.6
2022-11-17T03:39:27.762Z,6.6
2022-11-17T03:40:28.373Z,6.6
2022-11-17T03:41:28.971Z,6.6
2022-11-17T03:42:29.562Z,6.6
2022-11-17T03:43:30.156Z,6.6
2022-11-17T03:44:30.803Z,6.6
2022-11-17T03:45:31.362Z,6.6
2022-11-17T03:46:31.976Z,6.7
2022-11-17T03:47:32.567Z,6.6
2022-11-17T03:48:33.159Z,6.6
2022-11-17T03:49:33.751Z,6.7
2022-11-17T03:50:34.364Z,6.6
2022-11-17T03:51:34.977Z,6.7
2022-11-17T03:52:35.569Z,6.7
2022-11-17T03:53:36.466Z,6.7
2022-11-17T03:54:37.231Z,6.8
2022-11-17T03:55:37.826Z,6.7
2022-11-17T03:56:38.421Z,6.8
2022-11-17T03:57:39.027Z,6.8
2022-11-17T03:58:39.637Z,6.8
2022-11-17T03:59:40.210Z,6.9
2022-11-17T04:00:40.801Z,6.8
2022-11-17T04:01:41.430Z,6.8
2022-11-17T04:02:42.006Z,6.9
2022-11-17T04:03:42.617Z,6.8
2022-11-17T04:04:43.206Z,6.9
2022-11-17T04:05:43.800Z,6.9
2022-11-17T04:06:44.392Z,6.9
2022-11-17T04:07:44.983Z,6.8
2022-11-17T04:08:45.575Z,6.9
2022-11-17T04:09:46.170Z,6.8
2022-11-17T04:10:46.781Z,6.8
2022-11-17T04:11:47.376Z,6.8
2022-11-17T04:12:47.975Z,6.8
2022-11-17T04:13:48.562Z,6.9
2022-11-17T04:14:49.223Z,6.8
2022-11-17T04:15:49.763Z,6.8
2022-11-17T04:16:50.353Z,6.9
2022-11-17T04:17:50.946Z,6.9
2022-11-17T04:18:57.457Z,6.9
2022-11-17T04:19:53.128Z,6.9
2022-11-17T04:20:53.741Z,6.8
2022-11-17T04:21:54.331Z,6.8
2022-11-17T04:22:54.924Z,6.8
2022-11-17T04:23:55.518Z,6.8
2022-11-17T04:24:56.112Z,6.9
2022-11-17T04:25:56.722Z,6.9
2022-11-17T04:26:57.336Z,6.9
2022-11-17T04:27:57.927Z,6.9
2022-11-17T04:28:58.521Z,6.9
2022-11-17T04:29:59.122Z,6.9
2022-11-17T04:30:59.726Z,6.8
2022-11-17T04:32:00.318Z,6.9
2022-11-17T04:33:00.910Z,6.9
2022-11-17T04:34:01.508Z,6.9
2022-11-17T04:35:02.094Z,6.9
2022-11-17T04:36:02.688Z,6.9
2022-11-17T04:37:08.160Z,6.9
2022-11-17T04:38:03.906Z,6.9
2022-11-17T04:39:04.499Z,6.9
2022-11-17T04:40:05.092Z,6.9
2022-11-17T04:41:05.686Z,6.7
2022-11-17T04:42:06.297Z,6.8
2022-11-17T04:43:06.888Z,6.8
2022-11-17T04:44:07.480Z,6.8
2022-11-17T04:45:08.158Z,6.8
2022-11-17T04:46:08.680Z,6.8
2022-11-17T04:47:09.272Z,6.8
2022-11-17T04:48:09.865Z,6.8
2022-11-17T04:49:10.458Z,6.8
2022-11-17T04:50:11.053Z,6.8
2022-11-17T04:51:11.644Z,6.7
2022-11-17T04:52:12.255Z,6.8
2022-11-17T04:53:12.853Z,6.7
2022-11-17T04:54:13.441Z,6.7
2022-11-17T04:55:14.033Z,6.7
2022-11-17T04:56:14.626Z,6.6
2022-11-17T04:57:15.215Z,6.6
2022-11-17T04:58:15.811Z,6.7
2022-11-17T04:59:16.401Z,6.6
2022-11-17T05:00:17.061Z,6.6
2022-11-17T05:01:17.598Z,6.6
2022-11-17T05:02:18.256Z,6.6
2022-11-17T05:03:18.841Z,6.6
2022-11-17T05:04:19.439Z,6.6
2022-11-17T05:05:20.026Z,6.6
2022-11-17T05:06:20.639Z,6.6
2022-11-17T05:07:21.283Z,6.6
2022-11-17T05:08:21.847Z,6.7
2022-11-17T05:09:22.439Z,6.6
2022-11-17T05:10:23.065Z,6.6
2022-11-17T05:11:23.700Z,6.6
2022-11-17T05:12:24.245Z,6.6
2022-11-17T05:13:24.835Z,6.6
2022-11-17T05:14:25.426Z,6.6
2022-11-17T05:15:26.051Z,6.6
2022-11-17T05:16:26.631Z,6.7
2022-11-17T05:17:27.222Z,6.5
2022-11-17T05:18:27.816Z,6.6
2022-11-17T05:19:28.409Z,6.5
2022-11-17T05:20:29.004Z,6.5
2022-11-17T05:21:29.596Z,6.5
2022-11-17T05:22:30.209Z,6.5
2022-11-17T05:23:30.802Z,6.5
2022-11-17T05:24:31.395Z,6.5
2022-11-17T05:25:31.987Z,6.5
2022-11-17T05:26:32.579Z,6.5
2022-11-17T05:27:33.172Z,6.5
2022-11-17T05:28:33.764Z,6.5
2022-11-17T05:29:34.353Z,6.5
2022-11-17T05:30:35.015Z,6.5
2022-11-17T05:31:35.558Z,6.5
2022-11-17T05:32:36.149Z,6.5
2022-11-17T05:33:37.998Z,6.5
2022-11-17T05:34:37.371Z,6.5
2022-11-17T05:35:37.963Z,6.4
2022-11-17T05:36:38.555Z,6.4
2022-11-17T05:37:39.148Z,6.5
2022-11-17T05:38:39.740Z,6.4
2022-11-17T05:39:40.332Z,6.4
2022-11-17T05:40:40.927Z,6.5
2022-11-17T05:41:41.517Z,6.5
2022-11-17T05:42:42.120Z,6.5
2022-11-17T05:43:42.704Z,6.4
2022-11-17T05:44:43.294Z,6.5
2022-11-17T05:45:43.952Z,6.4
2022-11-17T05:46:44.500Z,6.4
2022-11-17T05:47:45.092Z,6.4
2022-11-17T05:48:45.686Z,6.4
2022-11-17T05:49:46.302Z,6.4
2022-11-17T05:50:46.913Z,6.4
2022-11-17T05:51:52.500Z,6.4
2022-11-17T05:52:49.112Z,6.4
2022-11-17T05:53:49.725Z,6.4
2022-11-17T05:54:50.317Z,6.4
2022-11-17T05:55:50.928Z,6.4
2022-11-17T05:56:51.521Z,6.4
2022-11-17T05:57:52.113Z,6.4
2022-11-17T05:58:52.708Z,6.4
2022-11-17T05:59:53.304Z,6.3
2022-11-17T06:00:53.961Z,6.4
2022-11-17T06:01:54.501Z,6.4
2022-11-17T06:02:55.096Z,6.4
2022-11-17T06:03:55.751Z,6.4
2022-11-17T06:04:56.306Z,6.4
2022-11-17T06:05:56.916Z,6.4
2022-11-17T06:06:57.526Z,6.4
2022-11-17T06:07:58.102Z,6.3
2022-11-17T06:08:58.714Z,6.3
2022-11-17T06:09:59.303Z,6.3
2022-11-17T06:10:59.898Z,6.4
2022-11-17T06:12:05.486Z,6.3
2022-11-17T06:13:02.072Z,6.3
2022-11-17T06:14:02.662Z,6.4
2022-11-17T06:15:03.256Z,6.3
2022-11-17T06:16:03.915Z,6.3
2022-11-17T06:17:04.454Z,6.3
2022-11-17T06:18:05.045Z,6.2
2022-11-17T06:19:05.640Z,6.2
2022-11-17T06:20:06.229Z,6.3
2022-11-17T06:21:06.821Z,6.3
2022-11-17T06:22:14.555Z,6.3
2022-11-17T06:23:09.001Z,6.3
2022-11-17T06:24:09.611Z,6.3
2022-11-17T06:25:10.204Z,6.2
2022-11-17T06:26:10.798Z,6.2
2022-11-17T06:27:11.389Z,6.2
2022-11-17T06:28:12.001Z,6.2
2022-11-17T06:29:12.595Z,6.2
2022-11-17T06:30:13.190Z,6.3
2022-11-17T06:31:13.864Z,6.2
2022-11-17T06:32:14.409Z,6.1
2022-11-17T06:33:15.009Z,6.2
2022-11-17T06:34:15.596Z,6.2
2022-11-17T06:35:16.191Z,6.1
2022-11-17T06:36:16.784Z,6.2
2022-11-17T06:37:17.376Z,6.1
2022-11-17T06:38:17.966Z,6.2
2022-11-17T06:39:18.560Z,6.2
2022-11-17T06:40:19.153Z,6.2
2022-11-17T06:41:19.749Z,6.2
2022-11-17T06:42:20.340Z,6.1
2022-11-17T06:43:20.933Z,6.2
2022-11-17T06:44:21.525Z,6.1
2022-11-17T06:45:22.119Z,6.2
2022-11-17T06:46:22.778Z,6.2
2022-11-17T06:47:23.328Z,6.2
2022-11-17T06:48:23.917Z,6.1
2022-11-17T06:49:24.511Z,6.1
2022-11-17T06:50:25.189Z,6.1
2022-11-17T06:51:25.783Z,6.1
2022-11-17T06:52:26.377Z,6.1
2022-11-17T06:53:26.973Z,6.1
2022-11-17T06:54:27.567Z,6.1
2022-11-17T06:55:28.164Z,6.1
2022-11-17T06:56:28.778Z,6.1
2022-11-17T06:57:29.368Z,6.0
2022-11-17T06:58:29.964Z,6.1
2022-11-17T06:59:30.581Z,6.1
2022-11-17T07:00:31.269Z,6.1
2022-11-17T07:01:31.978Z,6.1
2022-11-17T07:02:32.520Z,6.1
2022-11-17T07:03:33.334Z,6.1
2022-11-17T07:04:33.987Z,6.0
2022-11-17T07:05:34.583Z,6.1
2022-11-17T07:06:35.200Z,6.2
2022-11-17T07:07:35.855Z,6.1
2022-11-17T07:08:36.596Z,6.1
2022-11-17T07:09:37.357Z,6.1
2022-11-17T07:10:37.987Z,6.1
2022-11-17T07:11:38.580Z,6.1
2022-11-17T07:12:39.187Z,6.1
2022-11-17T07:13:39.781Z,6.1
2022-11-17T07:14:40.396Z,6.1
2022-11-17T07:15:40.991Z,6.1
2022-11-17T07:16:41.667Z,6.0
2022-11-17T07:17:42.199Z,6.1
2022-11-17T07:18:42.815Z,6.1
2022-11-17T07:19:43.412Z,6.1
2022-11-17T07:20:44.011Z,6.0
2022-11-17T07:21:44.628Z,6.0
2022-11-17T07:22:45.228Z,6.1
2022-11-17T07:23:45.919Z,6.1
2022-11-17T07:24:46.498Z,6.1
2022-11-17T07:25:47.089Z,6.1
2022-11-17T07:26:47.686Z,6.0
2022-11-17T07:27:48.282Z,6.1
2022-11-17T07:28:48.879Z,6.0
2022-11-17T07:29:49.473Z,6.1
2022-11-17T07:30:50.090Z,6.1
2022-11-17T07:31:50.685Z,6.0
2022-11-17T07:32:54.656Z,6.1
2022-11-17T07:33:52.873Z,6.1
2022-11-17T07:34:53.471Z,6.2
2022-11-17T07:35:54.088Z,6.1
2022-11-17T07:36:54.689Z,6.1
2022-11-17T07:37:55.284Z,6.1
2022-11-17T07:38:55.882Z,6.0
2022-11-17T07:39:56.478Z,6.1
2022-11-17T07:40:57.096Z,6.1
2022-11-17T07:41:57.676Z,6.1
2022-11-17T07:42:58.290Z,6.1
2022-11-17T07:43:58.890Z,6.1
2022-11-17T07:44:59.487Z,6.1
2022-11-17T07:46:00.081Z,6.2
2022-11-17T07:47:00.679Z,6.2
2022-11-17T07:48:01.277Z,6.2
2022-11-17T07:49:01.872Z,6.2
2022-11-17T07:50:02.470Z,6.1
2022-11-17T07:51:03.067Z,6.2
2022-11-17T07:52:03.663Z,6.2
2022-11-17T07:53:04.260Z,6.2
2022-11-17T07:54:04.856Z,6.2
2022-11-17T07:55:05.453Z,6.1
2022-11-17T07:56:06.051Z,6.2
2022-11-17T07:57:06.661Z,6.2
2022-11-17T07:58:07.245Z,6.2
2022-11-17T07:59:07.841Z,6.2
2022-11-17T08:00:08.437Z,6.2
2022-11-17T08:01:09.109Z,6.2
2022-11-17T08:02:09.673Z,6.3
2022-11-17T08:03:10.271Z,6.2
2022-11-17T08:04:10.909Z,6.2
2022-11-17T08:05:11.466Z,6.3
2022-11-17T08:06:12.062Z,6.3
2022-11-17T08:07:12.678Z,6.3
2022-11-17T08:08:13.253Z,6.3
2022-11-17T08:09:13.871Z,6.3
2022-11-17T08:10:14.465Z,6.3
2022-11-17T08:11:15.063Z,6.3
2022-11-17T08:12:15.681Z,6.4
2022-11-17T08:13:16.299Z,6.3
2022-11-17T08:14:16.896Z,6.4
2022-11-17T08:15:17.495Z,6.3
2022-11-17T08:16:18.092Z,6.3
2022-11-17T08:17:18.787Z,6.4
2022-11-17T08:18:19.301Z,6.5
2022-11-17T08:19:19.900Z,6.5
2022-11-17T08:20:20.498Z,6.4
2022-11-17T08:21:21.096Z,6.4
2022-11-17T08:22:21.693Z,6.4
2022-11-17T08:23:22.290Z,6.4
2022-11-17T08:24:22.889Z,6.5
2022-11-17T08:25:23.485Z,6.5
2022-11-17T08:26:24.084Z,6.4
2022-11-17T08:27:24.681Z,6.5
2022-11-17T08:28:25.285Z,6.5
2022-11-17T08:29:25.875Z,6.5
2022-11-17T08:30:26.475Z,6.5
2022-11-17T08:31:27.090Z,6.5
2022-11-17T08:32:27.752Z,6.5
2022-11-17T08:33:28.294Z,6.5
2022-11-17T08:34:28.904Z,6.5
2022-11-17T08:35:33.045Z,6.5
2022-11-17T08:36:31.104Z,6.5
2022-11-17T08:37:31.703Z,6.5
2022-11-17T08:38:32.392Z,6.5
2022-11-17T08:39:32.975Z,6.6
2022-11-17T08:40:33.579Z,6.6
2022-11-17T08:41:34.189Z,6.7
2022-11-17T08:42:34.788Z,6.6
2022-11-17T08:43:35.402Z,6.6
2022-11-17T08:44:36.004Z,6.6
2022-11-17T08:45:36.599Z,6.5
2022-11-17T08:46:37.195Z,6.7
2022-11-17T08:47:37.861Z,6.6
2022-11-17T08:48:38.621Z,6.7
2022-11-17T08:49:39.020Z,6.6
2022-11-17T08:50:39.638Z,6.6
2022-11-17T08:51:40.235Z,6.6
2022-11-17T08:52:40.836Z,6.7
2022-11-17T08:53:41.431Z,6.7
2022-11-17T08:54:42.048Z,6.6
2022-11-17T08:55:42.735Z,6.7
2022-11-17T08:56:43.341Z,6.7
2022-11-17T08:57:43.904Z,6.6
2022-11-17T08:58:44.503Z,6.7
2022-11-17T08:59:45.101Z,6.6
2022-11-17T09:00:45.723Z,6.7
2022-11-17T09:01:46.367Z,6.6
2022-11-17T09:02:46.979Z,6.7
2022-11-17T09:03:47.576Z,6.6
2022-11-17T09:04:48.196Z,6.7
2022-11-17T09:05:48.793Z,6.7
2022-11-17T09:06:49.408Z,6.6
2022-11-17T09:07:50.182Z,6.7
2022-11-17T09:08:50.841Z,6.8
2022-11-17T09:09:51.405Z,6.8
2022-11-17T09:10:52.025Z,6.7
2022-11-17T09:11:52.637Z,6.7
2022-11-17T09:12:53.234Z,6.7
2022-11-17T09:13:53.851Z,6.7
2022-11-17T09:14:54.448Z,6.7
2022-11-17T09:15:55.060Z,6.7
2022-11-17T09:16:55.643Z,6.8
2022-11-17T09:17:56.312Z,6.8
2022-11-17T09:18:56.852Z,6.8
2022-11-17T09:19:57.450Z,6.7
2022-11-17T09:20:58.049Z,6.7
2022-11-17T09:21:58.648Z,6.7
2022-11-17T09:22:59.244Z,6.8
2022-11-17T09:23:59.846Z,6.7
2022-11-17T09:25:00.441Z,6.7
2022-11-17T09:26:01.039Z,6.8
2022-11-17T09:27:01.638Z,6.7
2022-11-17T09:28:02.238Z,6.7
2022-11-17T09:29:02.853Z,6.7
2022-11-17T09:30:03.456Z,6.7
2022-11-17T09:31:04.091Z,6.7
2022-11-17T09:32:04.671Z,6.8
2022-11-17T09:33:05.345Z,6.8
2022-11-17T09:34:06.201Z,6.8
2022-11-17T09:35:06.876Z,6.8
2022-11-17T09:36:07.482Z,6.7
2022-11-17T09:37:08.074Z,6.7
2022-11-17T09:38:08.689Z,6.7
2022-11-17T09:39:09.290Z,6.8
2022-11-17T09:40:09.900Z,6.8
2022-11-17T09:41:10.484Z,6.8
2022-11-17T09:42:11.084Z,6.7
2022-11-17T09:43:11.857Z,6.7
2022-11-17T09:44:12.386Z,6.8
2022-11-17T09:45:12.982Z,6.6
2022-11-17T09:46:13.580Z,6.6
2022-11-17T09:47:14.176Z,6.7
2022-11-17T09:48:51.202Z,6.6
2022-11-17T09:49:16.363Z,6.6
2022-11-17T09:50:16.963Z,6.6
2022-11-17T09:51:17.560Z,6.6
2022-11-17T09:52:18.160Z,6.6
2022-11-17T09:53:18.758Z,6.7
2022-11-17T09:54:19.355Z,6.6
2022-11-17T09:55:19.952Z,6.6
2022-11-17T09:56:20.566Z,6.6
2022-11-17T09:57:21.164Z,6.6
2022-11-17T09:58:21.761Z,6.5
2022-11-17T09:59:22.361Z,6.5
2022-11-17T10:00:22.957Z,6.5
2022-11-17T10:01:23.554Z,6.6
2022-11-17T10:02:24.188Z,6.6
2022-11-17T10:03:24.747Z,6.5
2022-11-17T10:04:25.347Z,6.6
2022-11-17T10:05:25.944Z,6.6
2022-11-17T10:06:26.541Z,6.6
2022-11-17T10:07:27.162Z,6.6
2022-11-17T10:08:27.742Z,6.6
2022-11-17T10:09:28.340Z,6.6
2022-11-17T10:10:28.940Z,6.7
2022-11-17T10:11:29.537Z,6.6
2022-11-17T10:12:30.137Z,6.5
2022-11-17T10:13:30.733Z,6.6
2022-11-17T10:14:31.331Z,6.5
2022-11-17T10:15:31.934Z,6.6
2022-11-17T10:16:32.535Z,6.6
2022-11-17T10:17:33.128Z,6.6
2022-11-17T10:18:37.892Z,6.6
2022-11-17T10:19:34.341Z,6.6
2022-11-17T10:20:34.942Z,6.5
2022-11-17T10:21:35.559Z,6.5
2022-11-17T10:22:36.325Z,6.6
2022-11-17T10:23:41.272Z,6.7
2022-11-17T10:24:38.362Z,6.6
2022-11-17T10:25:38.960Z,6.5
2022-11-17T10:26:39.559Z,6.6
2022-11-17T10:27:40.157Z,6.6
2022-11-17T10:28:40.758Z,6.6
2022-11-17T10:29:41.353Z,6.6
2022-11-17T10:30:41.970Z,6.5
2022-11-17T10:31:42.569Z,6.6
2022-11-17T10:32:47.953Z,6.7
2022-11-17T10:33:43.853Z,6.6
2022-11-17T10:34:44.392Z,6.6
2022-11-17T10:35:44.992Z,6.6
2022-11-17T10:36:45.611Z,6.7
2022-11-17T10:37:46.231Z,6.8
2022-11-17T10:38:46.828Z,6.8
2022-11-17T10:39:47.426Z,6.8
2022-11-17T10:40:48.025Z,6.7
2022-11-17T10:41:48.643Z,6.7
2022-11-17T10:42:49.243Z,6.8
2022-11-17T10:43:49.839Z,6.7
2022-11-17T10:44:50.439Z,6.7
2022-11-17T10:45:51.055Z,6.7
2022-11-17T10:46:53.732Z,6.8
2022-11-17T10:47:53.251Z,6.8
2022-11-17T10:48:53.867Z,6.8
2022-11-17T10:49:54.484Z,6.7
2022-11-17T10:50:55.100Z,6.7
2022-11-17T10:51:55.709Z,6.8
2022-11-17T10:52:56.323Z,6.8
2022-11-17T10:53:56.939Z,6.9
2022-11-17T10:54:57.538Z,6.9
2022-11-17T10:55:58.136Z,7.0
2022-11-17T10:56:58.735Z,6.9
2022-11-17T10:57:59.333Z,6.9
2022-11-17T10:58:59.935Z,6.9
2022-11-17T11:00:00.532Z,6.8
2022-11-17T11:01:01.180Z,6.8
2022-11-17T11:02:01.753Z,6.9
2022-11-17T11:03:02.351Z,6.9
2022-11-17T11:04:02.949Z,6.9
2022-11-17T11:05:03.548Z,7.0
2022-11-17T11:06:04.145Z,6.9
2022-11-17T11:07:04.765Z,6.8
2022-11-17T11:08:05.361Z,6.9
2022-11-17T11:09:05.959Z,6.9
2022-11-17T11:10:06.556Z,7.0
2022-11-17T11:11:07.175Z,6.9
2022-11-17T11:12:07.768Z,6.8
2022-11-17T11:13:08.365Z,6.7
2022-11-17T11:14:08.963Z,6.8
2022-11-17T11:15:09.608Z,6.9
2022-11-17T11:16:10.158Z,6.8
2022-11-17T11:17:10.757Z,6.9
2022-11-17T11:18:11.374Z,6.9
2022-11-17T11:19:12.313Z,6.9
2022-11-17T11:20:13.021Z,6.9
2022-11-17T11:21:13.639Z,6.9
2022-11-17T11:22:18.305Z,7.0
2022-11-17T11:23:15.832Z,7.1
2022-11-17T11:24:16.432Z,7.1
2022-11-17T11:25:17.028Z,7.0
2022-11-17T11:26:17.627Z,7.0
2022-11-17T11:27:18.225Z,7.0
2022-11-17T11:28:18.824Z,7.0
2022-11-17T11:29:19.422Z,7.0
2022-11-17T11:30:20.039Z,7.0
2022-11-17T11:31:20.645Z,7.0
2022-11-17T11:32:21.235Z,6.9
2022-11-17T11:33:21.835Z,6.9
2022-11-17T11:34:22.448Z,6.9
2022-11-17T11:35:23.045Z,6.8
2022-11-17T11:36:23.646Z,6.8
2022-11-17T11:37:24.242Z,6.8
2022-11-17T11:38:24.838Z,6.8
2022-11-17T11:39:25.439Z,6.9
2022-11-17T11:40:26.035Z,6.8
2022-11-17T11:41:26.630Z,6.7
2022-11-17T11:42:27.281Z,6.8
2022-11-17T11:43:27.878Z,6.8
2022-11-17T11:44:28.497Z,6.8
2022-11-17T11:45:29.094Z,6.8
2022-11-17T11:46:29.710Z,6.8
2022-11-17T11:47:30.306Z,6.7
2022-11-17T11:48:30.906Z,6.8
2022-11-17T11:49:31.507Z,6.8
2022-11-17T11:50:32.101Z,6.7
2022-11-17T11:51:32.697Z,6.7
2022-11-17T11:52:33.316Z,6.7
2022-11-17T11:53:33.913Z,6.8
2022-11-17T11:54:37.178Z,6.7
2022-11-17T11:55:35.211Z,6.7
2022-11-17T11:56:35.820Z,6.7
2022-11-17T11:57:36.435Z,6.7
2022-11-17T11:58:37.027Z,6.7
2022-11-17T11:59:37.625Z,6.7
2022-11-17T12:00:38.223Z,6.8
2022-11-17T12:01:38.821Z,6.8
2022-11-17T12:02:39.471Z,6.7
2022-11-17T12:03:40.140Z,6.8
2022-11-17T12:04:40.700Z,6.7
2022-11-17T12:05:41.316Z,6.7
2022-11-17T12:06:41.919Z,6.7
2022-11-17T12:07:42.514Z,6.7
2022-11-17T12:08:43.113Z,6.7
2022-11-17T12:09:43.711Z,6.8
2022-11-17T12:10:44.311Z,6.8
2022-11-17T12:11:44.907Z,6.8
2022-11-17T12:12:45.508Z,6.8
2022-11-17T12:13:51.247Z,6.8
2022-11-17T12:14:47.700Z,6.8
2022-11-17T12:15:48.299Z,6.8
2022-11-17T12:16:48.898Z,6.9
2022-11-17T12:17:49.497Z,6.9
2022-11-17T12:18:50.097Z,6.9
2022-11-17T12:19:50.695Z,7.0
2022-11-17T12:20:51.313Z,7.0
2022-11-17T12:21:51.910Z,6.9
2022-11-17T12:22:52.544Z,7.0
2022-11-17T12:23:53.127Z,7.0
2022-11-17T12:24:53.728Z,7.0
2022-11-17T12:25:54.605Z,7.1
2022-11-17T12:26:55.199Z,7.1
2022-11-17T12:27:55.795Z,7.0
2022-11-17T12:28:56.393Z,7.1
2022-11-17T12:29:56.990Z,7.0
2022-11-17T12:30:57.586Z,7.1
2022-11-17T12:31:58.181Z,7.0
2022-11-17T12:32:58.780Z,7.0
2022-11-17T12:33:59.376Z,7.0
2022-11-17T12:35:00.088Z,7.1
2022-11-17T12:36:00.592Z,7.1
2022-11-17T12:37:01.190Z,7.0
2022-11-17T12:38:01.786Z,7.0
2022-11-17T12:39:02.384Z,7.0
2022-11-17T12:40:03.003Z,7.1
2022-11-17T12:41:03.580Z,7.0
2022-11-17T12:42:04.176Z,7.0
2022-11-17T12:43:04.774Z,7.1
2022-11-17T12:44:05.372Z,7.0
2022-11-17T12:45:05.969Z,7.0
2022-11-17T12:46:06.566Z,7.0
2022-11-17T12:47:07.162Z,7.1
2022-11-17T12:48:32.181Z,7.0
2022-11-17T12:49:09.390Z,7.0
2022-11-17T12:50:09.990Z,7.0
2022-11-17T12:51:10.563Z,7.1
2022-11-17T12:52:11.158Z,7.1
2022-11-17T12:53:11.777Z,7.0
2022-11-17T12:54:12.712Z,7.1
2022-11-17T12:55:13.541Z,7.1
2022-11-17T12:56:14.136Z,7.0
2022-11-17T12:57:14.742Z,7.1
2022-11-17T12:58:15.333Z,7.2
2022-11-17T12:59:15.933Z,7.2
2022-11-17T13:00:16.529Z,7.1
2022-11-17T13:01:17.165Z,7.1
2022-11-17T13:02:17.726Z,7.1
2022-11-17T13:03:18.325Z,7.2
2022-11-17T13:04:18.942Z,7.1
2022-11-17T13:05:19.540Z,7.1
2022-11-17T13:06:34.802Z,7.2
2022-11-17T13:07:21.675Z,7.1
2022-11-17T13:08:22.276Z,7.1
2022-11-17T13:09:22.876Z,7.1
2022-11-17T13:10:23.493Z,7.1
2022-11-17T13:11:24.113Z,7.1
2022-11-17T13:12:24.727Z,7.1
2022-11-17T13:13:25.324Z,7.0
2022-11-17T13:14:25.922Z,7.1
2022-11-17T13:15:26.537Z,7.1
2022-11-17T13:16:27.136Z,7.1
2022-11-17T13:18:41.081Z,7.2
2022-11-17T13:19:41.693Z,7.2
2022-11-17T13:20:42.280Z,7.1
2022-11-17T13:21:42.882Z,7.2
2022-11-17T13:22:43.481Z,7.2
2022-11-17T13:23:44.081Z,7.1
2022-11-17T13:24:44.680Z,7.1
2022-11-17T13:25:45.278Z,7.2
2022-11-17T13:26:45.920Z,7.1
2022-11-17T13:27:51.097Z,7.2
2022-11-17T13:28:48.085Z,7.2
2022-11-17T13:29:48.685Z,7.2
2022-11-17T13:30:49.300Z,7.2
2022-11-17T13:31:49.899Z,7.1
2022-11-17T13:32:50.496Z,7.1
2022-11-17T13:33:51.096Z,7.1
2022-11-17T13:34:51.701Z,7.1
2022-11-17T13:35:52.402Z,7.0
2022-11-17T13:36:52.938Z,7.1
2022-11-17T13:37:53.536Z,7.2
2022-11-17T13:38:54.136Z,7.0
2022-11-17T13:39:54.969Z,7.1
2022-11-17T13:40:55.508Z,7.1
2022-11-17T13:41:56.106Z,7.1
2022-11-17T13:42:56.700Z,7.0
2022-11-17T13:43:57.298Z,7.0
2022-11-17T13:44:57.893Z,7.1
2022-11-17T13:45:58.494Z,7.0
2022-11-17T13:46:59.089Z,7.0
2022-11-17T13:47:59.685Z,6.9
2022-11-17T13:49:00.282Z,6.9
2022-11-17T13:50:00.881Z,6.9
2022-11-17T13:51:01.499Z,6.8
2022-11-17T13:52:02.116Z,6.9
2022-11-17T13:53:02.693Z,6.9
2022-11-17T13:54:03.290Z,6.9
2022-11-17T13:55:03.884Z,6.9
2022-11-17T13:56:04.485Z,6.9